sensor_id;sensor_type;location;lat;lon;timestamp;P1;durP1;ratioP1;P2;durP2;ratioP2
20393;SDS011;10356;50.544;9.642;2023-09-18T00:01:01;9.73;;;7.90;;
20393;SDS011;10356;50.544;9.642;2023-09-18T00:03:28;10.00;;;7.85;;
20393;SDS011;10356;50.544;9.642;2023-09-18T00:05:54;10.68;;;8.13;;
20393;SDS011;10356;50.544;9.642;2023-09-18T00:08:21;11.13;;;8.13;;
20393;SDS011;10356;50.544;9.642;2023-09-18T00:10:49;10.60;;;8.02;;
20393;SDS011;10356;50.544;9.642;2023-09-18T00:13:19;13.15;;;8.38;;
20393;SDS011;10356;50.544;9.642;2023-09-18T00:15:46;10.98;;;8.20;;
20393;SDS011;10356;50.544;9.642;2023-09-18T00:18:14;12.43;;;8.18;;
20393;SDS011;10356;50.544;9.642;2023-09-18T00:20:40;13.35;;;8.93;;
20393;SDS011;10356;50.544;9.642;2023-09-18T00:23:08;9.65;;;7.85;;
20393;SDS011;10356;50.544;9.642;2023-09-18T00:25:35;10.38;;;8.40;;
20393;SDS011;10356;50.544;9.642;2023-09-18T00:28:03;10.65;;;8.88;;
20393;SDS011;10356;50.544;9.642;2023-09-18T00:30:30;10.07;;;8.88;;
20393;SDS011;10356;50.544;9.642;2023-09-18T00:32:57;13.70;;;8.23;;
20393;SDS011;10356;50.544;9.642;2023-09-18T00:35:23;14.00;;;8.98;;
20393;SDS011;10356;50.544;9.642;2023-09-18T00:37:50;13.48;;;9.70;;
20393;SDS011;10356;50.544;9.642;2023-09-18T00:40:16;12.40;;;9.30;;
20393;SDS011;10356;50.544;9.642;2023-09-18T00:42:43;11.70;;;8.43;;
20393;SDS011;10356;50.544;9.642;2023-09-18T00:45:10;11.32;;;8.52;;
20393;SDS011;10356;50.544;9.642;2023-09-18T00:47:37;10.45;;;8.20;;
20393;SDS011;10356;50.544;9.642;2023-09-18T00:50:04;11.50;;;8.85;;
20393;SDS011;10356;50.544;9.642;2023-09-18T00:52:34;13.15;;;8.55;;
20393;SDS011;10356;50.544;9.642;2023-09-18T00:55:01;14.00;;;9.02;;
20393;SDS011;10356;50.544;9.642;2023-09-18T00:57:28;14.55;;;8.93;;
20393;SDS011;10356;50.544;9.642;2023-09-18T00:59:55;11.45;;;9.48;;
20393;SDS011;10356;50.544;9.642;2023-09-18T01:02:23;12.13;;;8.80;;
20393;SDS011;10356;50.544;9.642;2023-09-18T01:04:50;12.70;;;8.15;;
20393;SDS011;10356;50.544;9.642;2023-09-18T01:07:16;11.18;;;8.27;;
20393;SDS011;10356;50.544;9.642;2023-09-18T01:09:43;13.27;;;8.15;;
20393;SDS011;10356;50.544;9.642;2023-09-18T01:12:11;12.02;;;8.57;;
20393;SDS011;10356;50.544;9.642;2023-09-18T01:14:46;11.77;;;8.00;;
20393;SDS011;10356;50.544;9.642;2023-09-18T01:17:20;10.23;;;8.13;;
20393;SDS011;10356;50.544;9.642;2023-09-18T01:19:49;12.75;;;8.77;;
20393;SDS011;10356;50.544;9.642;2023-09-18T01:22:17;13.63;;;9.10;;
20393;SDS011;10356;50.544;9.642;2023-09-18T01:24:46;11.82;;;8.50;;
20393;SDS011;10356;50.544;9.642;2023-09-18T01:27:14;9.77;;;8.63;;
20393;SDS011;10356;50.544;9.642;2023-09-18T01:29:42;9.52;;;7.88;;
20393;SDS011;10356;50.544;9.642;2023-09-18T01:32:09;9.50;;;8.32;;
20393;SDS011;10356;50.544;9.642;2023-09-18T01:34:36;12.35;;;9.30;;
20393;SDS011;10356;50.544;9.642;2023-09-18T01:37:06;12.85;;;8.73;;
20393;SDS011;10356;50.544;9.642;2023-09-18T01:39:35;16.65;;;8.50;;
20393;SDS011;10356;50.544;9.642;2023-09-18T01:42:04;10.85;;;8.25;;
20393;SDS011;10356;50.544;9.642;2023-09-18T01:44:31;14.68;;;9.18;;
20393;SDS011;10356;50.544;9.642;2023-09-18T01:46:59;11.63;;;8.60;;
20393;SDS011;10356;50.544;9.642;2023-09-18T01:49:28;11.20;;;8.35;;
20393;SDS011;10356;50.544;9.642;2023-09-18T01:51:56;15.73;;;9.43;;
20393;SDS011;10356;50.544;9.642;2023-09-18T01:54:23;16.10;;;8.70;;
20393;SDS011;10356;50.544;9.642;2023-09-18T01:56:49;14.07;;;9.30;;
20393;SDS011;10356;50.544;9.642;2023-09-18T01:59:18;9.98;;;8.80;;
20393;SDS011;10356;50.544;9.642;2023-09-18T02:01:45;12.32;;;8.75;;
20393;SDS011;10356;50.544;9.642;2023-09-18T02:04:11;10.05;;;8.68;;
20393;SDS011;10356;50.544;9.642;2023-09-18T02:06:38;9.32;;;8.02;;
20393;SDS011;10356;50.544;9.642;2023-09-18T02:09:05;11.57;;;8.70;;
20393;SDS011;10356;50.544;9.642;2023-09-18T02:11:33;14.10;;;9.63;;
20393;SDS011;10356;50.544;9.642;2023-09-18T02:14:00;13.60;;;8.95;;
20393;SDS011;10356;50.544;9.642;2023-09-18T02:16:31;17.05;;;9.32;;
20393;SDS011;10356;50.544;9.642;2023-09-18T02:18:58;13.50;;;8.63;;
20393;SDS011;10356;50.544;9.642;2023-09-18T02:21:25;12.30;;;8.40;;
20393;SDS011;10356;50.544;9.642;2023-09-18T02:23:52;13.88;;;9.60;;
20393;SDS011;10356;50.544;9.642;2023-09-18T02:26:19;10.05;;;8.70;;
20393;SDS011;10356;50.544;9.642;2023-09-18T02:28:46;12.75;;;9.02;;
20393;SDS011;10356;50.544;9.642;2023-09-18T02:31:13;11.88;;;8.43;;
20393;SDS011;10356;50.544;9.642;2023-09-18T02:33:41;15.55;;;9.65;;
20393;SDS011;10356;50.544;9.642;2023-09-18T02:36:09;12.05;;;8.88;;
20393;SDS011;10356;50.544;9.642;2023-09-18T02:38:35;12.38;;;9.15;;
20393;SDS011;10356;50.544;9.642;2023-09-18T02:41:02;10.48;;;8.45;;
20393;SDS011;10356;50.544;9.642;2023-09-18T02:43:28;13.52;;;8.82;;
20393;SDS011;10356;50.544;9.642;2023-09-18T02:45:55;12.80;;;9.77;;
20393;SDS011;10356;50.544;9.642;2023-09-18T02:48:21;11.77;;;7.90;;
20393;SDS011;10356;50.544;9.642;2023-09-18T02:50:49;10.73;;;8.07;;
20393;SDS011;10356;50.544;9.642;2023-09-18T02:53:16;9.85;;;8.43;;
20393;SDS011;10356;50.544;9.642;2023-09-18T02:55:44;10.02;;;8.40;;
20393;SDS011;10356;50.544;9.642;2023-09-18T02:58:11;11.82;;;8.15;;
20393;SDS011;10356;50.544;9.642;2023-09-18T03:00:40;11.02;;;7.85;;
20393;SDS011;10356;50.544;9.642;2023-09-18T03:03:08;15.05;;;9.20;;
20393;SDS011;10356;50.544;9.642;2023-09-18T03:05:35;12.40;;;8.43;;
20393;SDS011;10356;50.544;9.642;2023-09-18T03:08:03;12.88;;;8.73;;
20393;SDS011;10356;50.544;9.642;2023-09-18T03:10:32;15.85;;;7.97;;
20393;SDS011;10356;50.544;9.642;2023-09-18T03:12:59;10.57;;;8.10;;
20393;SDS011;10356;50.544;9.642;2023-09-18T03:15:25;10.68;;;7.97;;
20393;SDS011;10356;50.544;9.642;2023-09-18T03:17:52;11.45;;;7.93;;
20393;SDS011;10356;50.544;9.642;2023-09-18T03:20:21;9.82;;;8.55;;
20393;SDS011;10356;50.544;9.642;2023-09-18T03:22:48;13.68;;;9.27;;
20393;SDS011;10356;50.544;9.642;2023-09-18T03:25:16;11.55;;;9.10;;
20393;SDS011;10356;50.544;9.642;2023-09-18T03:27:42;12.02;;;9.30;;
20393;SDS011;10356;50.544;9.642;2023-09-18T03:30:09;8.27;;;7.47;;
20393;SDS011;10356;50.544;9.642;2023-09-18T03:32:37;8.55;;;7.65;;
20393;SDS011;10356;50.544;9.642;2023-09-18T03:35:04;9.23;;;7.50;;
20393;SDS011;10356;50.544;9.642;2023-09-18T03:37:31;8.63;;;7.47;;
20393;SDS011;10356;50.544;9.642;2023-09-18T03:39:57;8.63;;;7.60;;
20393;SDS011;10356;50.544;9.642;2023-09-18T03:42:25;9.35;;;7.55;;
20393;SDS011;10356;50.544;9.642;2023-09-18T03:44:52;10.80;;;7.68;;
20393;SDS011;10356;50.544;9.642;2023-09-18T03:47:18;11.02;;;7.72;;
20393;SDS011;10356;50.544;9.642;2023-09-18T03:49:45;10.80;;;8.27;;
20393;SDS011;10356;50.544;9.642;2023-09-18T03:52:11;10.52;;;7.85;;
20393;SDS011;10356;50.544;9.642;2023-09-18T03:54:38;9.27;;;7.80;;
20393;SDS011;10356;50.544;9.642;2023-09-18T03:57:05;11.90;;;7.68;;
20393;SDS011;10356;50.544;9.642;2023-09-18T03:59:32;12.93;;;8.60;;
20393;SDS011;10356;50.544;9.642;2023-09-18T04:01:59;12.52;;;8.60;;
20393;SDS011;10356;50.544;9.642;2023-09-18T04:04:25;12.95;;;8.13;;
20393;SDS011;10356;50.544;9.642;2023-09-18T04:06:53;14.38;;;8.80;;
20393;SDS011;10356;50.544;9.642;2023-09-18T04:09:19;10.70;;;8.65;;
20393;SDS011;10356;50.544;9.642;2023-09-18T04:11:46;19.30;;;9.73;;
20393;SDS011;10356;50.544;9.642;2023-09-18T04:14:12;14.10;;;8.85;;
20393;SDS011;10356;50.544;9.642;2023-09-18T04:16:40;11.15;;;8.73;;
20393;SDS011;10356;50.544;9.642;2023-09-18T04:19:08;16.02;;;9.23;;
20393;SDS011;10356;50.544;9.642;2023-09-18T04:21:35;10.93;;;7.97;;
20393;SDS011;10356;50.544;9.642;2023-09-18T04:24:01;11.90;;;9.13;;
20393;SDS011;10356;50.544;9.642;2023-09-18T04:26:28;13.43;;;9.05;;
20393;SDS011;10356;50.544;9.642;2023-09-18T04:28:55;10.82;;;9.00;;
20393;SDS011;10356;50.544;9.642;2023-09-18T04:31:22;16.48;;;9.43;;
20393;SDS011;10356;50.544;9.642;2023-09-18T04:33:50;11.18;;;9.20;;
20393;SDS011;10356;50.544;9.642;2023-09-18T04:36:16;11.57;;;10.13;;
20393;SDS011;10356;50.544;9.642;2023-09-18T04:38:43;10.85;;;9.75;;
20393;SDS011;10356;50.544;9.642;2023-09-18T04:41:09;13.68;;;10.50;;
20393;SDS011;10356;50.544;9.642;2023-09-18T04:43:36;11.73;;;9.45;;
20393;SDS011;10356;50.544;9.642;2023-09-18T04:46:04;10.80;;;9.43;;
20393;SDS011;10356;50.544;9.642;2023-09-18T04:48:30;10.82;;;9.45;;
20393;SDS011;10356;50.544;9.642;2023-09-18T04:50:59;11.32;;;9.52;;
20393;SDS011;10356;50.544;9.642;2023-09-18T04:53:26;12.13;;;10.27;;
20393;SDS011;10356;50.544;9.642;2023-09-18T04:55:53;10.25;;;8.82;;
20393;SDS011;10356;50.544;9.642;2023-09-18T04:58:20;15.35;;;9.82;;
20393;SDS011;10356;50.544;9.642;2023-09-18T05:00:47;10.65;;;9.60;;
20393;SDS011;10356;50.544;9.642;2023-09-18T05:03:19;11.70;;;9.82;;
20393;SDS011;10356;50.544;9.642;2023-09-18T05:05:46;11.60;;;10.10;;
20393;SDS011;10356;50.544;9.642;2023-09-18T05:08:14;11.02;;;9.68;;
20393;SDS011;10356;50.544;9.642;2023-09-18T05:10:40;11.15;;;9.93;;
20393;SDS011;10356;50.544;9.642;2023-09-18T05:13:07;12.25;;;9.20;;
20393;SDS011;10356;50.544;9.642;2023-09-18T05:15:34;11.02;;;9.02;;
20393;SDS011;10356;50.544;9.642;2023-09-18T05:18:00;10.43;;;9.07;;
20393;SDS011;10356;50.544;9.642;2023-09-18T05:20:29;10.77;;;8.38;;
20393;SDS011;10356;50.544;9.642;2023-09-18T05:22:56;14.75;;;8.95;;
20393;SDS011;10356;50.544;9.642;2023-09-18T05:25:25;10.73;;;8.30;;
20393;SDS011;10356;50.544;9.642;2023-09-18T05:27:54;9.18;;;8.10;;
20393;SDS011;10356;50.544;9.642;2023-09-18T05:30:25;9.48;;;8.25;;
20393;SDS011;10356;50.544;9.642;2023-09-18T05:32:53;12.23;;;8.73;;
20393;SDS011;10356;50.544;9.642;2023-09-18T05:35:20;12.00;;;8.95;;
20393;SDS011;10356;50.544;9.642;2023-09-18T05:37:46;9.20;;;8.32;;
20393;SDS011;10356;50.544;9.642;2023-09-18T05:40:13;9.18;;;8.23;;
20393;SDS011;10356;50.544;9.642;2023-09-18T05:42:42;12.93;;;8.77;;
20393;SDS011;10356;50.544;9.642;2023-09-18T05:45:09;10.50;;;8.15;;
20393;SDS011;10356;50.544;9.642;2023-09-18T05:47:36;10.80;;;9.00;;
20393;SDS011;10356;50.544;9.642;2023-09-18T05:50:03;10.75;;;8.80;;
20393;SDS011;10356;50.544;9.642;2023-09-18T05:52:31;9.77;;;8.57;;
20393;SDS011;10356;50.544;9.642;2023-09-18T05:54:58;13.18;;;9.02;;
20393;SDS011;10356;50.544;9.642;2023-09-18T05:57:24;13.40;;;9.27;;
20393;SDS011;10356;50.544;9.642;2023-09-18T05:59:53;11.40;;;8.90;;
20393;SDS011;10356;50.544;9.642;2023-09-18T06:02:20;10.85;;;8.95;;
20393;SDS011;10356;50.544;9.642;2023-09-18T06:04:46;12.32;;;9.52;;
20393;SDS011;10356;50.544;9.642;2023-09-18T06:07:13;10.30;;;8.45;;
20393;SDS011;10356;50.544;9.642;2023-09-18T06:09:39;11.98;;;8.50;;
20393;SDS011;10356;50.544;9.642;2023-09-18T06:12:06;12.63;;;8.88;;
20393;SDS011;10356;50.544;9.642;2023-09-18T06:14:34;9.57;;;8.50;;
20393;SDS011;10356;50.544;9.642;2023-09-18T06:17:04;13.88;;;8.55;;
20393;SDS011;10356;50.544;9.642;2023-09-18T06:19:31;11.35;;;8.88;;
20393;SDS011;10356;50.544;9.642;2023-09-18T06:21:59;10.10;;;7.57;;
20393;SDS011;10356;50.544;9.642;2023-09-18T06:24:25;10.98;;;8.48;;
20393;SDS011;10356;50.544;9.642;2023-09-18T06:26:52;12.57;;;8.13;;
20393;SDS011;10356;50.544;9.642;2023-09-18T06:29:18;13.75;;;7.53;;
20393;SDS011;10356;50.544;9.642;2023-09-18T06:31:44;9.95;;;6.35;;
20393;SDS011;10356;50.544;9.642;2023-09-18T06:34:12;12.68;;;6.22;;
20393;SDS011;10356;50.544;9.642;2023-09-18T06:36:39;12.27;;;5.85;;
20393;SDS011;10356;50.544;9.642;2023-09-18T06:39:05;7.82;;;5.70;;
20393;SDS011;10356;50.544;9.642;2023-09-18T06:41:32;12.50;;;5.60;;
20393;SDS011;10356;50.544;9.642;2023-09-18T06:43:59;11.55;;;5.45;;
20393;SDS011;10356;50.544;9.642;2023-09-18T06:46:27;12.38;;;5.93;;
20393;SDS011;10356;50.544;9.642;2023-09-18T06:48:54;11.32;;;6.00;;
20393;SDS011;10356;50.544;9.642;2023-09-18T06:51:22;9.85;;;5.55;;
20393;SDS011;10356;50.544;9.642;2023-09-18T06:53:49;11.25;;;5.50;;
20393;SDS011;10356;50.544;9.642;2023-09-18T06:56:15;13.77;;;6.07;;
20393;SDS011;10356;50.544;9.642;2023-09-18T06:58:42;11.60;;;5.65;;
20393;SDS011;10356;50.544;9.642;2023-09-18T07:01:08;9.80;;;5.15;;
20393;SDS011;10356;50.544;9.642;2023-09-18T07:03:35;10.25;;;5.55;;
20393;SDS011;10356;50.544;9.642;2023-09-18T07:06:02;7.60;;;4.55;;
20393;SDS011;10356;50.544;9.642;2023-09-18T07:08:30;9.20;;;5.03;;
20393;SDS011;10356;50.544;9.642;2023-09-18T07:10:57;10.73;;;5.35;;
20393;SDS011;10356;50.544;9.642;2023-09-18T07:13:24;8.57;;;5.25;;
20393;SDS011;10356;50.544;9.642;2023-09-18T07:15:50;8.50;;;5.20;;
20393;SDS011;10356;50.544;9.642;2023-09-18T07:18:17;10.60;;;5.00;;
20393;SDS011;10356;50.544;9.642;2023-09-18T07:20:44;7.93;;;4.97;;
20393;SDS011;10356;50.544;9.642;2023-09-18T07:23:10;8.95;;;5.07;;
20393;SDS011;10356;50.544;9.642;2023-09-18T07:25:38;9.02;;;4.82;;
20393;SDS011;10356;50.544;9.642;2023-09-18T07:28:05;10.40;;;5.05;;
20393;SDS011;10356;50.544;9.642;2023-09-18T07:30:32;8.60;;;4.30;;
20393;SDS011;10356;50.544;9.642;2023-09-18T07:32:59;8.18;;;4.25;;
20393;SDS011;10356;50.544;9.642;2023-09-18T07:35:26;8.32;;;4.35;;
20393;SDS011;10356;50.544;9.642;2023-09-18T07:37:52;9.00;;;4.18;;
20393;SDS011;10356;50.544;9.642;2023-09-18T07:40:19;11.55;;;4.22;;
20393;SDS011;10356;50.544;9.642;2023-09-18T07:42:46;10.05;;;4.88;;
20393;SDS011;10356;50.544;9.642;2023-09-18T07:45:12;9.18;;;4.63;;
20393;SDS011;10356;50.544;9.642;2023-09-18T07:47:39;11.23;;;4.28;;
20393;SDS011;10356;50.544;9.642;2023-09-18T07:50:06;6.47;;;3.38;;
20393;SDS011;10356;50.544;9.642;2023-09-18T07:52:33;7.85;;;4.13;;
20393;SDS011;10356;50.544;9.642;2023-09-18T07:54:59;7.05;;;3.25;;
20393;SDS011;10356;50.544;9.642;2023-09-18T07:57:26;7.72;;;3.95;;
20393;SDS011;10356;50.544;9.642;2023-09-18T07:59:56;7.30;;;3.28;;
20393;SDS011;10356;50.544;9.642;2023-09-18T08:02:23;7.85;;;3.03;;
20393;SDS011;10356;50.544;9.642;2023-09-18T08:04:50;8.98;;;3.70;;
20393;SDS011;10356;50.544;9.642;2023-09-18T08:07:18;6.03;;;3.45;;
20393;SDS011;10356;50.544;9.642;2023-09-18T08:09:44;9.00;;;3.33;;
20393;SDS011;10356;50.544;9.642;2023-09-18T08:12:12;10.85;;;3.67;;
20393;SDS011;10356;50.544;9.642;2023-09-18T08:14:39;8.75;;;3.63;;
20393;SDS011;10356;50.544;9.642;2023-09-18T08:17:06;10.50;;;3.42;;
20393;SDS011;10356;50.544;9.642;2023-09-18T08:19:33;11.35;;;3.10;;
20393;SDS011;10356;50.544;9.642;2023-09-18T08:22:00;8.75;;;3.17;;
20393;SDS011;10356;50.544;9.642;2023-09-18T08:24:28;7.78;;;3.03;;
20393;SDS011;10356;50.544;9.642;2023-09-18T08:26:55;9.52;;;2.95;;
20393;SDS011;10356;50.544;9.642;2023-09-18T08:29:22;10.20;;;3.22;;
20393;SDS011;10356;50.544;9.642;2023-09-18T08:31:48;8.63;;;2.80;;
20393;SDS011;10356;50.544;9.642;2023-09-18T08:34:16;7.45;;;2.90;;
20393;SDS011;10356;50.544;9.642;2023-09-18T08:36:43;8.48;;;2.45;;
20393;SDS011;10356;50.544;9.642;2023-09-18T08:39:09;7.60;;;2.75;;
20393;SDS011;10356;50.544;9.642;2023-09-18T08:41:37;12.30;;;3.15;;
20393;SDS011;10356;50.544;9.642;2023-09-18T08:44:08;11.45;;;2.85;;
20393;SDS011;10356;50.544;9.642;2023-09-18T08:46:35;8.02;;;2.53;;
20393;SDS011;10356;50.544;9.642;2023-09-18T08:49:02;8.85;;;2.78;;
20393;SDS011;10356;50.544;9.642;2023-09-18T08:51:32;8.63;;;2.40;;
20393;SDS011;10356;50.544;9.642;2023-09-18T08:54:00;10.52;;;3.08;;
20393;SDS011;10356;50.544;9.642;2023-09-18T08:56:28;8.57;;;2.63;;
20393;SDS011;10356;50.544;9.642;2023-09-18T08:58:56;6.82;;;2.58;;
20393;SDS011;10356;50.544;9.642;2023-09-18T09:01:24;7.10;;;2.60;;
20393;SDS011;10356;50.544;9.642;2023-09-18T09:03:52;9.50;;;2.53;;
20393;SDS011;10356;50.544;9.642;2023-09-18T09:06:18;8.25;;;2.22;;
20393;SDS011;10356;50.544;9.642;2023-09-18T09:08:46;7.90;;;2.40;;
20393;SDS011;10356;50.544;9.642;2023-09-18T09:11:12;8.30;;;2.83;;
20393;SDS011;10356;50.544;9.642;2023-09-18T09:13:39;8.45;;;1.90;;
20393;SDS011;10356;50.544;9.642;2023-09-18T09:16:05;8.02;;;2.25;;
20393;SDS011;10356;50.544;9.642;2023-09-18T09:18:46;4.88;;;1.95;;
20393;SDS011;10356;50.544;9.642;2023-09-18T09:21:14;8.25;;;2.25;;
20393;SDS011;10356;50.544;9.642;2023-09-18T09:23:45;5.38;;;1.75;;
20393;SDS011;10356;50.544;9.642;2023-09-18T09:26:17;7.72;;;2.05;;
20393;SDS011;10356;50.544;9.642;2023-09-18T09:28:44;8.65;;;2.42;;
20393;SDS011;10356;50.544;9.642;2023-09-18T09:31:22;9.35;;;2.20;;
20393;SDS011;10356;50.544;9.642;2023-09-18T09:33:50;5.63;;;1.75;;
20393;SDS011;10356;50.544;9.642;2023-09-18T09:36:18;9.57;;;2.20;;
20393;SDS011;10356;50.544;9.642;2023-09-18T09:38:47;8.18;;;2.13;;
20393;SDS011;10356;50.544;9.642;2023-09-18T09:41:14;7.47;;;2.03;;
20393;SDS011;10356;50.544;9.642;2023-09-18T09:43:43;8.02;;;2.08;;
20393;SDS011;10356;50.544;9.642;2023-09-18T09:46:14;7.25;;;1.70;;
20393;SDS011;10356;50.544;9.642;2023-09-18T09:48:56;7.22;;;2.28;;
20393;SDS011;10356;50.544;9.642;2023-09-18T09:51:24;7.10;;;1.83;;
20393;SDS011;10356;50.544;9.642;2023-09-18T09:53:52;6.53;;;2.05;;
20393;SDS011;10356;50.544;9.642;2023-09-18T09:56:18;6.75;;;2.15;;
20393;SDS011;10356;50.544;9.642;2023-09-18T09:58:59;7.95;;;2.13;;
20393;SDS011;10356;50.544;9.642;2023-09-18T10:01:27;6.30;;;1.70;;
20393;SDS011;10356;50.544;9.642;2023-09-18T10:03:55;5.25;;;1.60;;
20393;SDS011;10356;50.544;9.642;2023-09-18T10:06:23;5.75;;;1.58;;
20393;SDS011;10356;50.544;9.642;2023-09-18T10:08:51;5.97;;;1.50;;
20393;SDS011;10356;50.544;9.642;2023-09-18T10:11:20;6.93;;;1.80;;
20393;SDS011;10356;50.544;9.642;2023-09-18T10:13:51;6.80;;;2.22;;
20393;SDS011;10356;50.544;9.642;2023-09-18T10:16:22;3.35;;;1.30;;
20393;SDS011;10356;50.544;9.642;2023-09-18T10:18:56;9.35;;;2.40;;
20393;SDS011;10356;50.544;9.642;2023-09-18T10:21:30;5.72;;;1.67;;
20393;SDS011;10356;50.544;9.642;2023-09-18T10:24:04;4.03;;;2.03;;
20393;SDS011;10356;50.544;9.642;2023-09-18T10:26:41;6.25;;;1.65;;
20393;SDS011;10356;50.544;9.642;2023-09-18T10:29:15;5.65;;;1.77;;
20393;SDS011;10356;50.544;9.642;2023-09-18T10:31:43;5.95;;;1.60;;
20393;SDS011;10356;50.544;9.642;2023-09-18T10:34:12;3.95;;;1.75;;
20393;SDS011;10356;50.544;9.642;2023-09-18T10:36:39;10.38;;;2.00;;
20393;SDS011;10356;50.544;9.642;2023-09-18T10:39:08;8.05;;;2.15;;
20393;SDS011;10356;50.544;9.642;2023-09-18T10:41:37;5.72;;;1.70;;
20393;SDS011;10356;50.544;9.642;2023-09-18T10:44:06;4.07;;;1.67;;
20393;SDS011;10356;50.544;9.642;2023-09-18T10:46:34;8.75;;;1.73;;
20393;SDS011;10356;50.544;9.642;2023-09-18T10:49:00;6.53;;;1.70;;
20393;SDS011;10356;50.544;9.642;2023-09-18T10:51:29;6.25;;;1.70;;
20393;SDS011;10356;50.544;9.642;2023-09-18T10:53:58;7.35;;;1.70;;
20393;SDS011;10356;50.544;9.642;2023-09-18T10:56:27;5.43;;;1.60;;
20393;SDS011;10356;50.544;9.642;2023-09-18T10:58:57;4.65;;;1.35;;
20393;SDS011;10356;50.544;9.642;2023-09-18T11:01:25;4.75;;;1.38;;
20393;SDS011;10356;50.544;9.642;2023-09-18T11:03:52;6.70;;;2.00;;
20393;SDS011;10356;50.544;9.642;2023-09-18T11:06:19;5.78;;;1.83;;
20393;SDS011;10356;50.544;9.642;2023-09-18T11:08:51;4.63;;;1.70;;
20393;SDS011;10356;50.544;9.642;2023-09-18T11:11:27;4.28;;;1.40;;
20393;SDS011;10356;50.544;9.642;2023-09-18T11:13:55;6.47;;;1.83;;
20393;SDS011;10356;50.544;9.642;2023-09-18T11:16:35;3.83;;;1.40;;
20393;SDS011;10356;50.544;9.642;2023-09-18T11:19:16;4.90;;;1.45;;
20393;SDS011;10356;50.544;9.642;2023-09-18T11:21:44;4.38;;;1.77;;
20393;SDS011;10356;50.544;9.642;2023-09-18T11:24:15;5.40;;;2.00;;
20393;SDS011;10356;50.544;9.642;2023-09-18T11:26:44;4.97;;;1.75;;
20393;SDS011;10356;50.544;9.642;2023-09-18T11:29:13;4.57;;;1.85;;
20393;SDS011;10356;50.544;9.642;2023-09-18T11:31:42;4.97;;;1.50;;
20393;SDS011;10356;50.544;9.642;2023-09-18T11:34:11;8.27;;;2.17;;
20393;SDS011;10356;50.544;9.642;2023-09-18T11:36:38;5.28;;;1.70;;
20393;SDS011;10356;50.544;9.642;2023-09-18T11:39:06;6.25;;;2.13;;
20393;SDS011;10356;50.544;9.642;2023-09-18T11:41:34;4.32;;;1.65;;
20393;SDS011;10356;50.544;9.642;2023-09-18T11:47:01;5.25;;;1.60;;
20393;SDS011;10356;50.544;9.642;2023-09-18T11:49:29;4.10;;;1.55;;
20393;SDS011;10356;50.544;9.642;2023-09-18T11:51:57;6.63;;;1.67;;
20393;SDS011;10356;50.544;9.642;2023-09-18T11:54:25;5.60;;;1.58;;
20393;SDS011;10356;50.544;9.642;2023-09-18T11:56:53;6.20;;;1.88;;
20393;SDS011;10356;50.544;9.642;2023-09-18T11:59:33;7.80;;;1.90;;
20393;SDS011;10356;50.544;9.642;2023-09-18T12:02:02;5.03;;;1.70;;
20393;SDS011;10356;50.544;9.642;2023-09-18T12:04:31;5.55;;;1.67;;
20393;SDS011;10356;50.544;9.642;2023-09-18T12:06:58;7.22;;;1.70;;
20393;SDS011;10356;50.544;9.642;2023-09-18T12:09:28;6.45;;;1.70;;
20393;SDS011;10356;50.544;9.642;2023-09-18T12:11:55;6.47;;;1.60;;
20393;SDS011;10356;50.544;9.642;2023-09-18T12:14:22;5.50;;;1.70;;
20393;SDS011;10356;50.544;9.642;2023-09-18T12:16:50;5.40;;;1.63;;
20393;SDS011;10356;50.544;9.642;2023-09-18T12:19:18;4.30;;;1.70;;
20393;SDS011;10356;50.544;9.642;2023-09-18T12:21:45;5.10;;;1.50;;
20393;SDS011;10356;50.544;9.642;2023-09-18T12:24:13;4.32;;;1.45;;
20393;SDS011;10356;50.544;9.642;2023-09-18T12:26:40;5.22;;;1.70;;
20393;SDS011;10356;50.544;9.642;2023-09-18T12:29:07;3.47;;;1.35;;
20393;SDS011;10356;50.544;9.642;2023-09-18T12:31:35;5.65;;;1.60;;
20393;SDS011;10356;50.544;9.642;2023-09-18T12:34:03;2.58;;;1.63;;
20393;SDS011;10356;50.544;9.642;2023-09-18T12:36:32;5.22;;;1.50;;
20393;SDS011;10356;50.544;9.642;2023-09-18T12:38:59;5.35;;;1.65;;
20393;SDS011;10356;50.544;9.642;2023-09-18T12:41:26;5.00;;;1.80;;
20393;SDS011;10356;50.544;9.642;2023-09-18T12:43:52;4.43;;;1.65;;
20393;SDS011;10356;50.544;9.642;2023-09-18T12:46:20;5.38;;;1.60;;
20393;SDS011;10356;50.544;9.642;2023-09-18T12:48:47;4.63;;;1.85;;
20393;SDS011;10356;50.544;9.642;2023-09-18T12:51:15;7.05;;;1.60;;
20393;SDS011;10356;50.544;9.642;2023-09-18T12:53:47;5.40;;;1.60;;
20393;SDS011;10356;50.544;9.642;2023-09-18T12:56:14;4.95;;;1.90;;
20393;SDS011;10356;50.544;9.642;2023-09-18T12:58:41;5.50;;;1.83;;
20393;SDS011;10356;50.544;9.642;2023-09-18T13:01:08;5.28;;;1.58;;
20393;SDS011;10356;50.544;9.642;2023-09-18T13:03:41;7.22;;;2.10;;
20393;SDS011;10356;50.544;9.642;2023-09-18T13:06:09;7.18;;;1.80;;
20393;SDS011;10356;50.544;9.642;2023-09-18T13:08:37;4.20;;;1.60;;
20393;SDS011;10356;50.544;9.642;2023-09-18T13:11:04;7.28;;;2.00;;
20393;SDS011;10356;50.544;9.642;2023-09-18T13:13:31;4.45;;;1.48;;
20393;SDS011;10356;50.544;9.642;2023-09-18T13:15:58;5.50;;;2.00;;
20393;SDS011;10356;50.544;9.642;2023-09-18T13:18:26;6.82;;;1.65;;
20393;SDS011;10356;50.544;9.642;2023-09-18T13:20:53;7.22;;;1.63;;
20393;SDS011;10356;50.544;9.642;2023-09-18T13:23:20;5.07;;;1.60;;
20393;SDS011;10356;50.544;9.642;2023-09-18T13:25:58;5.28;;;1.58;;
20393;SDS011;10356;50.544;9.642;2023-09-18T13:28:25;4.18;;;1.88;;
20393;SDS011;10356;50.544;9.642;2023-09-18T13:30:51;7.43;;;1.88;;
20393;SDS011;10356;50.544;9.642;2023-09-18T13:33:18;7.57;;;2.10;;
20393;SDS011;10356;50.544;9.642;2023-09-18T13:35:45;7.85;;;2.65;;
20393;SDS011;10356;50.544;9.642;2023-09-18T13:38:11;6.20;;;1.60;;
20393;SDS011;10356;50.544;9.642;2023-09-18T13:40:39;6.15;;;1.73;;
20393;SDS011;10356;50.544;9.642;2023-09-18T13:43:08;5.60;;;2.25;;
20393;SDS011;10356;50.544;9.642;2023-09-18T13:45:35;7.53;;;1.85;;
20393;SDS011;10356;50.544;9.642;2023-09-18T13:48:03;3.65;;;1.63;;
20393;SDS011;10356;50.544;9.642;2023-09-18T13:50:30;4.53;;;1.40;;
20393;SDS011;10356;50.544;9.642;2023-09-18T13:52:56;9.05;;;1.90;;
20393;SDS011;10356;50.544;9.642;2023-09-18T13:55:24;6.07;;;2.03;;
20393;SDS011;10356;50.544;9.642;2023-09-18T13:57:51;3.53;;;1.90;;
20393;SDS011;10356;50.544;9.642;2023-09-18T14:00:19;4.13;;;1.73;;
20393;SDS011;10356;50.544;9.642;2023-09-18T14:02:45;4.68;;;1.77;;
20393;SDS011;10356;50.544;9.642;2023-09-18T14:05:12;5.32;;;2.08;;
20393;SDS011;10356;50.544;9.642;2023-09-18T14:07:38;3.33;;;1.50;;
20393;SDS011;10356;50.544;9.642;2023-09-18T14:10:05;8.40;;;2.00;;
20393;SDS011;10356;50.544;9.642;2023-09-18T14:12:33;6.38;;;1.95;;
20393;SDS011;10356;50.544;9.642;2023-09-18T14:14:59;4.07;;;1.50;;
20393;SDS011;10356;50.544;9.642;2023-09-18T14:17:27;5.30;;;1.75;;
20393;SDS011;10356;50.544;9.642;2023-09-18T14:19:54;7.68;;;1.42;;
20393;SDS011;10356;50.544;9.642;2023-09-18T14:22:21;8.68;;;2.15;;
20393;SDS011;10356;50.544;9.642;2023-09-18T14:24:47;6.45;;;1.80;;
20393;SDS011;10356;50.544;9.642;2023-09-18T14:27:14;5.25;;;1.70;;
20393;SDS011;10356;50.544;9.642;2023-09-18T14:29:40;3.97;;;1.85;;
20393;SDS011;10356;50.544;9.642;2023-09-18T14:32:07;5.38;;;1.45;;
20393;SDS011;10356;50.544;9.642;2023-09-18T14:34:35;5.78;;;1.80;;
20393;SDS011;10356;50.544;9.642;2023-09-18T14:37:01;8.05;;;1.77;;
20393;SDS011;10356;50.544;9.642;2023-09-18T14:39:29;6.80;;;1.65;;
20393;SDS011;10356;50.544;9.642;2023-09-18T14:41:55;7.88;;;1.90;;
20393;SDS011;10356;50.544;9.642;2023-09-18T14:44:22;7.53;;;1.90;;
20393;SDS011;10356;50.544;9.642;2023-09-18T14:46:50;4.50;;;1.40;;